Share

Kota Taipei, Taiwan

08:16 PM CST on April 23, 2014 (GMT +0800)
ITAIPEIT2 Elev 30 ft | 25.03 °N, 121.53 °E | Change Station

Current weather conditions updated 14 minutes ago

Mostly Cloudy
Mendung Merata
69.8 °F
Feels Like 69.8 °F
N
7.0
Angin Variable Angin from Arah Timur Laut
Gusts 18.0 mph
Matahari Terbit 5:25 AM
Matahari Tenggelam 6:19 PM
Moon Kuartil Terakhir

Tomorrow is forecast to be Much Warmer than today. Hujan curah sore hari..

Tekanan 29.92 Inch
Jarak Pandang 5.0 Mil
Awan Few 1200 ft
Mendung Merata 2500 ft
Mendung Merata 5000 ft
Titik Embun 66 °F
Kelembaban 86%
Rainfall 0.00 Inch
Snow Depth Not available.
UV 0.0 out of 16
Pollen Not available.
Air Quality Not available.
Flu Activity Not available.
METAR RCSS 231200Z 09015KT 8000 FEW012 BKN025 BKN050 21/17 Q1013 NOSIG RMK A2992

More Conditions Fewer Conditions

Tekanan 29.92 Inch
Jarak Pandang 5.0 Mil
Awan Few 1200 ft
Mendung Merata 2500 ft
Mendung Merata 5000 ft
Titik Embun 66 °F
Kelembaban 86%
Rainfall 0.00 Inch
Snow Depth Not available.
UV 0.0 out of 16
Pollen Not available.
Air Quality Not available.
Flu Activity Not available.
METAR RCSS 231200Z 09015KT 8000 FEW012 BKN025 BKN050 21/17 Q1013 NOSIG RMK A2992

More Conditions Fewer Conditions

10-Day Weather Forecast

Almanac

Astronomi

Apr. 23, 2014 Rise Set
Actual Time 5:25 AM CST 6:19 PM CST
Civil Twilight 5:01 AM CST 6:43 PM CST
Nautical Twilight 4:33 AM CST 7:11 PM CST
Astronomical Twilight 4:04 AM CST 7:40 PM CST
Moon 12:51 AM CST 12:27 PM CST
Length Of Visible Light 13h 42m
Lama Satu Hari
12h 54m
Tomorrow will be 1m 20s longer.
Kuartil Terakhir, 37% of the Moon is Illuminated
Siang Ini
Kuartil Terakhir
Apr 29
New
May 6
Triwulan Pertama
May 14
Bulan Purnama
May 21
Kuartil Terakhir

Yesterday's Extremes

Country Highs Country Lows

Community

  • April Sunset
    April Sunset
  • Waiting..
    Waiting..
  • Sunset...
    Sunset...
  • Happy outdoor day
    Happy outdoor day
  • mystic afternoon....
    mystic afternoon....

WunderPhotos

Upload Photos

1,704,250 photos uploaded!

Nearby

Snow Depth

Not available.

Coastal Water Temperatures

Lokasi Temperatur
No Stations Reporting

Earthquake Activity

City Distance Mag. Time & Date
No recent earthquake activity has been reported nearby.
Minimum magnitude displayed is 2.5.

Nearby Weather Stations

Station Location Temp Titik Embun Kelembaban Angin Precip. Elev Telah Diperbaharui Type
Taipei Da'An 69.8 °F 66 °F 86% Arah Timur Laut  Pada  7.0 mph 0.00 Inch / hr 30 ft 8:01 PM CST Normal
Peihsi and Crius - XisTW, Pingzhen 67.3 °F 64 °F 89% Dari Timur ke Tenggara  Pada  9.0 mph 0.00 Inch / hr 492 ft 8:16 PM CST Rapid Fire
I-Lan 66.9 °F 66 °F 95% Arah Selatan  Pada  1.0 mph 0.00 Inch / hr 0 ft 8:09 PM CST Normal

Show More Stations Show Fewer Stations

What do you think?

We're not finished. Please let us know what you like, what you don't like, and what you are still missing.